sensor_id;sensor_type;location;lat;lon;timestamp;P1;durP1;ratioP1;P2;durP2;ratioP2
67904;SDS011;54709;43.614;1.576;2023-02-19T00:00:57;31.15;;;19.42;;
67904;SDS011;54709;43.614;1.576;2023-02-19T00:03:23;34.58;;;21.88;;
67904;SDS011;54709;43.614;1.576;2023-02-19T00:05:48;28.80;;;20.30;;
67904;SDS011;54709;43.614;1.576;2023-02-19T00:08:14;29.00;;;20.48;;
67904;SDS011;54709;43.614;1.576;2023-02-19T00:10:39;27.98;;;20.60;;
67904;SDS011;54709;43.614;1.576;2023-02-19T00:13:04;29.13;;;21.15;;
67904;SDS011;54709;43.614;1.576;2023-02-19T00:15:31;27.75;;;19.77;;
67904;SDS011;54709;43.614;1.576;2023-02-19T00:17:56;25.33;;;18.17;;
67904;SDS011;54709;43.614;1.576;2023-02-19T00:20:22;25.17;;;18.17;;
67904;SDS011;54709;43.614;1.576;2023-02-19T00:22:47;25.45;;;18.83;;
67904;SDS011;54709;43.614;1.576;2023-02-19T00:25:13;26.10;;;18.23;;
67904;SDS011;54709;43.614;1.576;2023-02-19T00:27:38;27.98;;;18.65;;
67904;SDS011;54709;43.614;1.576;2023-02-19T00:30:04;24.35;;;18.63;;
67904;SDS011;54709;43.614;1.576;2023-02-19T00:32:29;25.92;;;19.08;;
67904;SDS011;54709;43.614;1.576;2023-02-19T00:34:55;24.33;;;18.35;;
67904;SDS011;54709;43.614;1.576;2023-02-19T00:37:20;29.52;;;19.63;;
67904;SDS011;54709;43.614;1.576;2023-02-19T00:39:46;26.65;;;19.02;;
67904;SDS011;54709;43.614;1.576;2023-02-19T00:42:11;28.58;;;20.05;;
67904;SDS011;54709;43.614;1.576;2023-02-19T00:44:36;28.23;;;18.98;;
67904;SDS011;54709;43.614;1.576;2023-02-19T00:47:02;31.17;;;19.98;;
67904;SDS011;54709;43.614;1.576;2023-02-19T00:49:27;29.10;;;20.30;;
67904;SDS011;54709;43.614;1.576;2023-02-19T00:51:53;30.67;;;21.52;;
67904;SDS011;54709;43.614;1.576;2023-02-19T00:54:18;32.55;;;23.38;;
67904;SDS011;54709;43.614;1.576;2023-02-19T00:56:46;35.28;;;23.20;;
67904;SDS011;54709;43.614;1.576;2023-02-19T00:59:11;32.03;;;22.98;;
67904;SDS011;54709;43.614;1.576;2023-02-19T01:01:37;30.15;;;22.85;;
67904;SDS011;54709;43.614;1.576;2023-02-19T01:04:02;30.85;;;22.17;;
67904;SDS011;54709;43.614;1.576;2023-02-19T01:06:28;31.77;;;22.67;;
67904;SDS011;54709;43.614;1.576;2023-02-19T01:08:54;30.35;;;21.67;;
67904;SDS011;54709;43.614;1.576;2023-02-19T01:11:20;33.28;;;23.38;;
67904;SDS011;54709;43.614;1.576;2023-02-19T01:13:46;32.85;;;22.15;;
67904;SDS011;54709;43.614;1.576;2023-02-19T01:16:12;32.47;;;22.88;;
67904;SDS011;54709;43.614;1.576;2023-02-19T01:18:40;36.03;;;23.23;;
67904;SDS011;54709;43.614;1.576;2023-02-19T01:21:06;30.27;;;22.63;;
67904;SDS011;54709;43.614;1.576;2023-02-19T01:23:33;32.20;;;21.88;;
67904;SDS011;54709;43.614;1.576;2023-02-19T01:26:02;31.52;;;21.60;;
67904;SDS011;54709;43.614;1.576;2023-02-19T01:28:28;33.92;;;23.15;;
67904;SDS011;54709;43.614;1.576;2023-02-19T01:30:54;29.08;;;21.52;;
67904;SDS011;54709;43.614;1.576;2023-02-19T01:33:21;27.23;;;21.00;;
67904;SDS011;54709;43.614;1.576;2023-02-19T01:35:46;28.67;;;20.45;;
67904;SDS011;54709;43.614;1.576;2023-02-19T01:38:11;27.80;;;21.45;;
67904;SDS011;54709;43.614;1.576;2023-02-19T01:40:37;31.50;;;22.75;;
67904;SDS011;54709;43.614;1.576;2023-02-19T01:43:02;30.17;;;21.63;;
67904;SDS011;54709;43.614;1.576;2023-02-19T01:45:31;30.98;;;21.55;;
67904;SDS011;54709;43.614;1.576;2023-02-19T01:50:28;29.45;;;20.88;;
67904;SDS011;54709;43.614;1.576;2023-02-19T01:52:54;29.33;;;20.52;;
67904;SDS011;54709;43.614;1.576;2023-02-19T01:55:20;27.38;;;20.40;;
67904;SDS011;54709;43.614;1.576;2023-02-19T01:57:46;29.48;;;20.55;;
67904;SDS011;54709;43.614;1.576;2023-02-19T02:00:14;29.60;;;21.23;;
67904;SDS011;54709;43.614;1.576;2023-02-19T02:02:41;27.20;;;20.35;;
67904;SDS011;54709;43.614;1.576;2023-02-19T02:05:09;27.13;;;20.42;;
67904;SDS011;54709;43.614;1.576;2023-02-19T02:07:40;30.88;;;21.52;;
67904;SDS011;54709;43.614;1.576;2023-02-19T02:10:24;27.63;;;20.15;;
67904;SDS011;54709;43.614;1.576;2023-02-19T02:12:50;26.13;;;19.48;;
67904;SDS011;54709;43.614;1.576;2023-02-19T02:15:17;30.35;;;20.48;;
67904;SDS011;54709;43.614;1.576;2023-02-19T02:31:13;26.85;;;18.58;;
67904;SDS011;54709;43.614;1.576;2023-02-19T02:33:43;26.02;;;19.55;;
67904;SDS011;54709;43.614;1.576;2023-02-19T02:36:19;26.88;;;18.90;;
67904;SDS011;54709;43.614;1.576;2023-02-19T02:38:48;27.55;;;19.77;;
67904;SDS011;54709;43.614;1.576;2023-02-19T02:41:14;26.42;;;18.33;;
67904;SDS011;54709;43.614;1.576;2023-02-19T02:43:40;28.13;;;19.48;;
67904;SDS011;54709;43.614;1.576;2023-02-19T02:46:05;24.38;;;17.75;;
67904;SDS011;54709;43.614;1.576;2023-02-19T02:48:35;28.15;;;18.10;;
67904;SDS011;54709;43.614;1.576;2023-02-19T02:56:20;23.55;;;17.40;;
67904;SDS011;54709;43.614;1.576;2023-02-19T02:58:46;24.77;;;17.42;;
67904;SDS011;54709;43.614;1.576;2023-02-19T03:01:21;25.48;;;16.80;;
67904;SDS011;54709;43.614;1.576;2023-02-19T03:04:09;25.58;;;17.80;;
67904;SDS011;54709;43.614;1.576;2023-02-19T03:06:38;28.45;;;17.80;;
67904;SDS011;54709;43.614;1.576;2023-02-19T03:09:11;24.15;;;17.02;;
67904;SDS011;54709;43.614;1.576;2023-02-19T03:11:42;24.77;;;17.45;;
67904;SDS011;54709;43.614;1.576;2023-02-19T03:14:38;22.42;;;16.95;;
67904;SDS011;54709;43.614;1.576;2023-02-19T03:17:36;25.02;;;17.45;;
67904;SDS011;54709;43.614;1.576;2023-02-19T03:20:22;25.60;;;16.80;;
67904;SDS011;54709;43.614;1.576;2023-02-19T03:22:48;22.77;;;16.80;;
67904;SDS011;54709;43.614;1.576;2023-02-19T03:25:16;24.88;;;16.52;;
67904;SDS011;54709;43.614;1.576;2023-02-19T03:28:03;25.20;;;17.33;;
67904;SDS011;54709;43.614;1.576;2023-02-19T03:30:32;25.60;;;16.80;;
67904;SDS011;54709;43.614;1.576;2023-02-19T03:40:48;25.48;;;16.90;;
67904;SDS011;54709;43.614;1.576;2023-02-19T03:43:22;26.20;;;16.77;;
67904;SDS011;54709;43.614;1.576;2023-02-19T03:46:05;23.42;;;16.52;;
67904;SDS011;54709;43.614;1.576;2023-02-19T03:48:33;23.10;;;16.90;;
67904;SDS011;54709;43.614;1.576;2023-02-19T03:51:04;25.42;;;17.10;;
67904;SDS011;54709;43.614;1.576;2023-02-19T03:53:34;26.17;;;16.88;;
67904;SDS011;54709;43.614;1.576;2023-02-19T03:56:07;21.83;;;16.88;;
67904;SDS011;54709;43.614;1.576;2023-02-19T04:01:43;22.50;;;16.25;;
67904;SDS011;54709;43.614;1.576;2023-02-19T04:04:21;25.23;;;16.70;;
67904;SDS011;54709;43.614;1.576;2023-02-19T04:06:52;22.17;;;16.33;;
67904;SDS011;54709;43.614;1.576;2023-02-19T04:09:19;24.30;;;17.45;;
67904;SDS011;54709;43.614;1.576;2023-02-19T04:11:46;23.75;;;16.50;;
67904;SDS011;54709;43.614;1.576;2023-02-19T04:17:08;25.00;;;16.83;;
67904;SDS011;54709;43.614;1.576;2023-02-19T04:19:41;21.92;;;16.55;;
67904;SDS011;54709;43.614;1.576;2023-02-19T04:22:06;22.48;;;16.60;;
67904;SDS011;54709;43.614;1.576;2023-02-19T04:24:34;25.58;;;17.95;;
67904;SDS011;54709;43.614;1.576;2023-02-19T04:27:02;20.65;;;16.33;;
67904;SDS011;54709;43.614;1.576;2023-02-19T04:29:29;23.23;;;17.60;;
67904;SDS011;54709;43.614;1.576;2023-02-19T04:31:54;24.10;;;17.95;;
67904;SDS011;54709;43.614;1.576;2023-02-19T04:34:19;26.08;;;17.98;;
67904;SDS011;54709;43.614;1.576;2023-02-19T04:36:45;29.00;;;18.58;;
67904;SDS011;54709;43.614;1.576;2023-02-19T04:39:10;25.05;;;17.85;;
67904;SDS011;54709;43.614;1.576;2023-02-19T04:41:35;24.58;;;18.40;;
67904;SDS011;54709;43.614;1.576;2023-02-19T04:44:01;29.08;;;18.63;;
67904;SDS011;54709;43.614;1.576;2023-02-19T04:46:26;24.48;;;17.40;;
67904;SDS011;54709;43.614;1.576;2023-02-19T04:48:52;26.52;;;17.80;;
67904;SDS011;54709;43.614;1.576;2023-02-19T04:51:17;26.02;;;18.35;;
67904;SDS011;54709;43.614;1.576;2023-02-19T04:53:43;28.60;;;19.75;;
67904;SDS011;54709;43.614;1.576;2023-02-19T04:56:09;26.73;;;18.65;;
67904;SDS011;54709;43.614;1.576;2023-02-19T04:58:36;27.23;;;17.90;;
67904;SDS011;54709;43.614;1.576;2023-02-19T05:01:02;26.48;;;19.05;;
67904;SDS011;54709;43.614;1.576;2023-02-19T05:03:27;23.90;;;17.85;;
67904;SDS011;54709;43.614;1.576;2023-02-19T05:05:53;28.13;;;18.48;;
67904;SDS011;54709;43.614;1.576;2023-02-19T05:08:18;25.83;;;18.15;;
67904;SDS011;54709;43.614;1.576;2023-02-19T05:10:44;23.35;;;17.70;;
67904;SDS011;54709;43.614;1.576;2023-02-19T05:13:09;23.88;;;17.17;;
67904;SDS011;54709;43.614;1.576;2023-02-19T05:15:35;23.52;;;16.85;;
67904;SDS011;54709;43.614;1.576;2023-02-19T05:18:00;22.70;;;16.48;;
67904;SDS011;54709;43.614;1.576;2023-02-19T05:20:26;21.73;;;16.27;;
67904;SDS011;54709;43.614;1.576;2023-02-19T05:22:51;25.75;;;16.65;;
67904;SDS011;54709;43.614;1.576;2023-02-19T05:25:16;25.20;;;16.45;;
67904;SDS011;54709;43.614;1.576;2023-02-19T05:27:42;23.00;;;16.02;;
67904;SDS011;54709;43.614;1.576;2023-02-19T05:30:07;24.95;;;16.95;;
67904;SDS011;54709;43.614;1.576;2023-02-19T05:32:33;23.98;;;16.42;;
67904;SDS011;54709;43.614;1.576;2023-02-19T05:34:59;22.98;;;16.55;;
67904;SDS011;54709;43.614;1.576;2023-02-19T05:37:25;24.42;;;15.85;;
67904;SDS011;54709;43.614;1.576;2023-02-19T05:39:51;27.58;;;16.48;;
67904;SDS011;54709;43.614;1.576;2023-02-19T05:42:16;23.30;;;16.08;;
67904;SDS011;54709;43.614;1.576;2023-02-19T05:44:42;23.15;;;15.25;;
67904;SDS011;54709;43.614;1.576;2023-02-19T05:47:07;24.17;;;15.25;;
67904;SDS011;54709;43.614;1.576;2023-02-19T05:49:32;20.58;;;14.63;;
67904;SDS011;54709;43.614;1.576;2023-02-19T05:51:58;21.88;;;16.20;;
67904;SDS011;54709;43.614;1.576;2023-02-19T05:54:23;22.65;;;15.05;;
67904;SDS011;54709;43.614;1.576;2023-02-19T05:56:49;21.60;;;14.98;;
67904;SDS011;54709;43.614;1.576;2023-02-19T05:59:18;21.98;;;14.32;;
67904;SDS011;54709;43.614;1.576;2023-02-19T06:01:45;21.08;;;14.88;;
67904;SDS011;54709;43.614;1.576;2023-02-19T06:04:11;20.20;;;13.98;;
67904;SDS011;54709;43.614;1.576;2023-02-19T06:06:38;18.75;;;14.55;;
67904;SDS011;54709;43.614;1.576;2023-02-19T06:09:04;21.33;;;14.23;;
67904;SDS011;54709;43.614;1.576;2023-02-19T06:11:30;22.50;;;14.40;;
67904;SDS011;54709;43.614;1.576;2023-02-19T06:13:56;19.85;;;14.25;;
67904;SDS011;54709;43.614;1.576;2023-02-19T06:16:21;18.92;;;14.07;;
67904;SDS011;54709;43.614;1.576;2023-02-19T06:18:48;18.13;;;13.52;;
67904;SDS011;54709;43.614;1.576;2023-02-19T06:21:14;21.25;;;14.77;;
67904;SDS011;54709;43.614;1.576;2023-02-19T06:23:40;20.83;;;13.90;;
67904;SDS011;54709;43.614;1.576;2023-02-19T06:28:44;20.38;;;14.27;;
67904;SDS011;54709;43.614;1.576;2023-02-19T06:31:11;22.58;;;15.07;;
67904;SDS011;54709;43.614;1.576;2023-02-19T06:33:37;18.33;;;13.48;;
67904;SDS011;54709;43.614;1.576;2023-02-19T06:36:07;21.77;;;14.32;;
67904;SDS011;54709;43.614;1.576;2023-02-19T06:38:36;20.15;;;14.88;;
67904;SDS011;54709;43.614;1.576;2023-02-19T06:41:02;21.77;;;14.77;;
67904;SDS011;54709;43.614;1.576;2023-02-19T06:43:29;21.83;;;14.90;;
67904;SDS011;54709;43.614;1.576;2023-02-19T06:45:59;22.48;;;15.20;;
67904;SDS011;54709;43.614;1.576;2023-02-19T06:48:26;19.33;;;13.90;;
67904;SDS011;54709;43.614;1.576;2023-02-19T06:50:52;20.17;;;13.95;;
67904;SDS011;54709;43.614;1.576;2023-02-19T06:53:18;20.25;;;14.13;;
67904;SDS011;54709;43.614;1.576;2023-02-19T06:55:43;24.02;;;14.82;;
67904;SDS011;54709;43.614;1.576;2023-02-19T06:58:09;21.17;;;14.40;;
67904;SDS011;54709;43.614;1.576;2023-02-19T07:00:34;22.50;;;14.20;;
67904;SDS011;54709;43.614;1.576;2023-02-19T07:03:00;18.52;;;14.10;;
67904;SDS011;54709;43.614;1.576;2023-02-19T07:05:25;21.17;;;13.90;;
67904;SDS011;54709;43.614;1.576;2023-02-19T07:07:51;21.27;;;13.68;;
67904;SDS011;54709;43.614;1.576;2023-02-19T07:10:17;25.23;;;14.45;;
67904;SDS011;54709;43.614;1.576;2023-02-19T07:12:43;19.00;;;13.52;;
67904;SDS011;54709;43.614;1.576;2023-02-19T07:15:08;19.60;;;14.35;;
67904;SDS011;54709;43.614;1.576;2023-02-19T07:17:34;20.92;;;13.90;;
67904;SDS011;54709;43.614;1.576;2023-02-19T07:20:00;21.77;;;15.52;;
67904;SDS011;54709;43.614;1.576;2023-02-19T07:22:25;22.85;;;15.95;;
67904;SDS011;54709;43.614;1.576;2023-02-19T07:24:50;22.90;;;16.02;;
67904;SDS011;54709;43.614;1.576;2023-02-19T07:27:16;21.55;;;15.30;;
67904;SDS011;54709;43.614;1.576;2023-02-19T07:29:41;22.15;;;16.17;;
67904;SDS011;54709;43.614;1.576;2023-02-19T07:32:07;21.52;;;15.90;;
67904;SDS011;54709;43.614;1.576;2023-02-19T07:34:32;21.30;;;15.50;;
67904;SDS011;54709;43.614;1.576;2023-02-19T07:36:57;21.77;;;15.77;;
67904;SDS011;54709;43.614;1.576;2023-02-19T07:39:23;24.20;;;16.92;;
67904;SDS011;54709;43.614;1.576;2023-02-19T07:41:48;22.95;;;16.08;;
67904;SDS011;54709;43.614;1.576;2023-02-19T07:44:13;24.67;;;17.92;;
67904;SDS011;54709;43.614;1.576;2023-02-19T07:46:40;27.38;;;19.45;;
67904;SDS011;54709;43.614;1.576;2023-02-19T07:49:06;28.15;;;19.33;;
67904;SDS011;54709;43.614;1.576;2023-02-19T07:51:32;27.33;;;17.67;;
67904;SDS011;54709;43.614;1.576;2023-02-19T07:53:57;22.27;;;17.13;;
67904;SDS011;54709;43.614;1.576;2023-02-19T07:56:22;22.95;;;17.10;;
67904;SDS011;54709;43.614;1.576;2023-02-19T07:58:48;24.48;;;17.02;;
67904;SDS011;54709;43.614;1.576;2023-02-19T08:03:43;24.10;;;16.85;;
67904;SDS011;54709;43.614;1.576;2023-02-19T08:06:09;25.48;;;17.67;;
67904;SDS011;54709;43.614;1.576;2023-02-19T08:08:35;23.70;;;16.30;;
67904;SDS011;54709;43.614;1.576;2023-02-19T08:11:02;24.88;;;17.02;;
67904;SDS011;54709;43.614;1.576;2023-02-19T08:13:47;21.58;;;16.02;;
67904;SDS011;54709;43.614;1.576;2023-02-19T08:16:14;26.30;;;15.73;;
67904;SDS011;54709;43.614;1.576;2023-02-19T08:18:44;20.40;;;13.50;;
67904;SDS011;54709;43.614;1.576;2023-02-19T08:21:10;19.35;;;13.55;;
67904;SDS011;54709;43.614;1.576;2023-02-19T08:23:36;18.13;;;12.00;;
67904;SDS011;54709;43.614;1.576;2023-02-19T08:26:02;15.95;;;11.52;;
67904;SDS011;54709;43.614;1.576;2023-02-19T08:28:28;15.13;;;11.10;;
67904;SDS011;54709;43.614;1.576;2023-02-19T08:30:57;19.27;;;11.30;;
67904;SDS011;54709;43.614;1.576;2023-02-19T08:33:24;18.42;;;11.75;;
67904;SDS011;54709;43.614;1.576;2023-02-19T08:35:49;16.05;;;11.05;;
67904;SDS011;54709;43.614;1.576;2023-02-19T08:38:14;14.13;;;11.23;;
67904;SDS011;54709;43.614;1.576;2023-02-19T08:40:40;16.70;;;11.25;;
67904;SDS011;54709;43.614;1.576;2023-02-19T08:43:07;13.27;;;9.98;;
67904;SDS011;54709;43.614;1.576;2023-02-19T08:45:35;15.73;;;10.70;;
67904;SDS011;54709;43.614;1.576;2023-02-19T08:48:01;17.48;;;11.15;;
67904;SDS011;54709;43.614;1.576;2023-02-19T08:50:27;16.00;;;12.52;;
67904;SDS011;54709;43.614;1.576;2023-02-19T08:52:53;16.08;;;11.43;;
67904;SDS011;54709;43.614;1.576;2023-02-19T08:55:18;16.48;;;11.20;;
67904;SDS011;54709;43.614;1.576;2023-02-19T08:57:44;16.35;;;11.85;;
67904;SDS011;54709;43.614;1.576;2023-02-19T09:00:09;13.40;;;10.98;;
67904;SDS011;54709;43.614;1.576;2023-02-19T09:02:36;16.13;;;11.90;;
67904;SDS011;54709;43.614;1.576;2023-02-19T09:05:01;14.38;;;10.63;;
67904;SDS011;54709;43.614;1.576;2023-02-19T09:07:27;14.60;;;10.25;;
67904;SDS011;54709;43.614;1.576;2023-02-19T09:09:52;14.02;;;10.93;;
67904;SDS011;54709;43.614;1.576;2023-02-19T09:12:18;14.25;;;10.75;;
67904;SDS011;54709;43.614;1.576;2023-02-19T09:14:43;15.73;;;11.35;;
67904;SDS011;54709;43.614;1.576;2023-02-19T09:17:09;14.70;;;10.80;;
67904;SDS011;54709;43.614;1.576;2023-02-19T09:19:35;13.88;;;10.98;;
67904;SDS011;54709;43.614;1.576;2023-02-19T09:22:01;14.50;;;11.18;;
67904;SDS011;54709;43.614;1.576;2023-02-19T09:24:28;16.35;;;10.43;;
67904;SDS011;54709;43.614;1.576;2023-02-19T09:26:54;14.85;;;11.07;;
67904;SDS011;54709;43.614;1.576;2023-02-19T09:29:26;16.02;;;9.90;;
67904;SDS011;54709;43.614;1.576;2023-02-19T09:31:55;13.50;;;10.35;;
67904;SDS011;54709;43.614;1.576;2023-02-19T09:34:22;14.82;;;10.55;;
67904;SDS011;54709;43.614;1.576;2023-02-19T09:36:48;11.05;;;9.18;;
67904;SDS011;54709;43.614;1.576;2023-02-19T09:39:13;13.57;;;9.43;;
67904;SDS011;54709;43.614;1.576;2023-02-19T09:41:46;14.18;;;10.40;;
67904;SDS011;54709;43.614;1.576;2023-02-19T09:44:13;18.55;;;11.07;;
67904;SDS011;54709;43.614;1.576;2023-02-19T09:46:44;13.88;;;10.80;;
67904;SDS011;54709;43.614;1.576;2023-02-19T09:49:12;14.02;;;10.77;;
67904;SDS011;54709;43.614;1.576;2023-02-19T09:51:40;15.75;;;10.80;;
67904;SDS011;54709;43.614;1.576;2023-02-19T09:54:12;14.18;;;10.52;;
67904;SDS011;54709;43.614;1.576;2023-02-19T09:56:53;11.90;;;10.30;;
67904;SDS011;54709;43.614;1.576;2023-02-19T09:59:20;14.68;;;10.15;;
67904;SDS011;54709;43.614;1.576;2023-02-19T10:01:58;13.55;;;10.57;;
67904;SDS011;54709;43.614;1.576;2023-02-19T10:04:27;12.80;;;10.23;;
67904;SDS011;54709;43.614;1.576;2023-02-19T10:06:53;14.43;;;9.80;;
67904;SDS011;54709;43.614;1.576;2023-02-19T10:09:24;15.27;;;11.43;;
67904;SDS011;54709;43.614;1.576;2023-02-19T10:11:51;18.13;;;13.27;;
67904;SDS011;54709;43.614;1.576;2023-02-19T10:14:21;16.85;;;12.48;;
67904;SDS011;54709;43.614;1.576;2023-02-19T10:16:51;18.85;;;11.90;;
67904;SDS011;54709;43.614;1.576;2023-02-19T10:19:16;13.90;;;10.73;;
67904;SDS011;54709;43.614;1.576;2023-02-19T10:21:42;17.67;;;11.10;;
67904;SDS011;54709;43.614;1.576;2023-02-19T10:24:07;13.05;;;10.68;;
67904;SDS011;54709;43.614;1.576;2023-02-19T10:26:41;13.73;;;10.45;;
67904;SDS011;54709;43.614;1.576;2023-02-19T10:29:08;16.42;;;10.55;;
67904;SDS011;54709;43.614;1.576;2023-02-19T10:31:33;14.07;;;10.00;;
67904;SDS011;54709;43.614;1.576;2023-02-19T10:33:59;16.25;;;11.43;;
67904;SDS011;54709;43.614;1.576;2023-02-19T10:38:54;15.13;;;12.05;;
67904;SDS011;54709;43.614;1.576;2023-02-19T10:41:21;19.27;;;14.27;;
67904;SDS011;54709;43.614;1.576;2023-02-19T10:43:55;24.42;;;14.50;;
67904;SDS011;54709;43.614;1.576;2023-02-19T10:46:31;23.00;;;16.13;;
67904;SDS011;54709;43.614;1.576;2023-02-19T10:48:59;25.98;;;17.15;;
67904;SDS011;54709;43.614;1.576;2023-02-19T10:51:33;26.08;;;18.27;;
67904;SDS011;54709;43.614;1.576;2023-02-19T10:56:33;27.48;;;18.25;;
67904;SDS011;54709;43.614;1.576;2023-02-19T11:01:56;21.20;;;13.73;;
67904;SDS011;54709;43.614;1.576;2023-02-19T11:04:22;14.88;;;11.10;;
67904;SDS011;54709;43.614;1.576;2023-02-19T11:06:48;11.10;;;7.82;;
67904;SDS011;54709;43.614;1.576;2023-02-19T11:11:49;11.13;;;8.10;;
67904;SDS011;54709;43.614;1.576;2023-02-19T11:14:17;14.45;;;9.07;;
67904;SDS011;54709;43.614;1.576;2023-02-19T11:16:47;15.10;;;9.27;;
67904;SDS011;54709;43.614;1.576;2023-02-19T11:19:35;14.90;;;9.90;;
67904;SDS011;54709;43.614;1.576;2023-02-19T11:22:48;13.82;;;10.18;;
67904;SDS011;54709;43.614;1.576;2023-02-19T11:25:03;14.18;;;9.40;;
67904;SDS011;54709;43.614;1.576;2023-02-19T11:27:29;16.05;;;9.70;;
67904;SDS011;54709;43.614;1.576;2023-02-19T11:29:55;14.35;;;9.48;;
67904;SDS011;54709;43.614;1.576;2023-02-19T11:32:25;12.90;;;9.15;;
67904;SDS011;54709;43.614;1.576;2023-02-19T11:35:11;11.65;;;9.02;;
67904;SDS011;54709;43.614;1.576;2023-02-19T11:37:55;12.52;;;9.38;;
67904;SDS011;54709;43.614;1.576;2023-02-19T11:40:22;11.52;;;8.48;;
67904;SDS011;54709;43.614;1.576;2023-02-19T11:43:06;10.90;;;8.75;;
67904;SDS011;54709;43.614;1.576;2023-02-19T11:45:46;11.90;;;9.00;;
67904;SDS011;54709;43.614;1.576;2023-02-19T11:48:24;11.13;;;8.75;;
67904;SDS011;54709;43.614;1.576;2023-02-19T11:53:46;14.20;;;10.40;;
67904;SDS011;54709;43.614;1.576;2023-02-19T11:56:32;14.80;;;11.00;;
67904;SDS011;54709;43.614;1.576;2023-02-19T11:59:01;12.60;;;9.90;;
67904;SDS011;54709;43.614;1.576;2023-02-19T12:01:51;10.98;;;9.15;;
67904;SDS011;54709;43.614;1.576;2023-02-19T12:10:14;13.10;;;8.02;;
67904;SDS011;54709;43.614;1.576;2023-02-19T12:16:09;12.20;;;8.68;;
67904;SDS011;54709;43.614;1.576;2023-02-19T12:27:07;8.15;;;6.53;;
67904;SDS011;54709;43.614;1.576;2023-02-19T12:35:31;9.23;;;6.10;;
67904;SDS011;54709;43.614;1.576;2023-02-19T12:44:00;10.32;;;5.70;;
67904;SDS011;54709;43.614;1.576;2023-02-19T12:46:39;9.57;;;5.80;;
67904;SDS011;54709;43.614;1.576;2023-02-19T12:49:11;8.48;;;5.45;;
67904;SDS011;54709;43.614;1.576;2023-02-19T12:51:44;8.32;;;6.20;;
67904;SDS011;54709;43.614;1.576;2023-02-19T12:54:13;14.18;;;6.57;;
67904;SDS011;54709;43.614;1.576;2023-02-19T12:56:41;10.95;;;6.30;;
67904;SDS011;54709;43.614;1.576;2023-02-19T12:59:30;7.78;;;5.75;;
67904;SDS011;54709;43.614;1.576;2023-02-19T13:02:16;7.43;;;5.97;;
67904;SDS011;54709;43.614;1.576;2023-02-19T13:04:54;8.13;;;5.70;;
67904;SDS011;54709;43.614;1.576;2023-02-19T13:10:02;7.43;;;5.63;;
67904;SDS011;54709;43.614;1.576;2023-02-19T13:12:41;8.98;;;5.82;;
67904;SDS011;54709;43.614;1.576;2023-02-19T13:15:13;7.75;;;5.68;;
67904;SDS011;54709;43.614;1.576;2023-02-19T13:17:44;8.68;;;5.35;;
67904;SDS011;54709;43.614;1.576;2023-02-19T13:22:43;13.13;;;5.95;;
67904;SDS011;54709;43.614;1.576;2023-02-19T13:31:22;7.75;;;5.57;;
67904;SDS011;54709;43.614;1.576;2023-02-19T13:34:04;7.47;;;4.78;;
67904;SDS011;54709;43.614;1.576;2023-02-19T13:36:33;6.13;;;3.60;;
67904;SDS011;54709;43.614;1.576;2023-02-19T13:39:01;5.88;;;3.80;;
67904;SDS011;54709;43.614;1.576;2023-02-19T13:41:30;6.32;;;4.05;;
67904;SDS011;54709;43.614;1.576;2023-02-19T13:44:04;6.13;;;4.10;;
67904;SDS011;54709;43.614;1.576;2023-02-19T13:46:40;6.05;;;3.50;;
67904;SDS011;54709;43.614;1.576;2023-02-19T13:51:52;4.97;;;3.20;;
67904;SDS011;54709;43.614;1.576;2023-02-19T13:54:23;6.45;;;3.30;;
67904;SDS011;54709;43.614;1.576;2023-02-19T13:59:48;4.20;;;3.10;;
67904;SDS011;54709;43.614;1.576;2023-02-19T14:09:52;4.90;;;3.60;;
67904;SDS011;54709;43.614;1.576;2023-02-19T14:12:19;5.75;;;3.65;;
67904;SDS011;54709;43.614;1.576;2023-02-19T14:14:50;5.43;;;3.90;;
67904;SDS011;54709;43.614;1.576;2023-02-19T14:30:31;5.63;;;3.22;;
67904;SDS011;54709;43.614;1.576;2023-02-19T14:32:58;4.47;;;2.95;;
67904;SDS011;54709;43.614;1.576;2023-02-19T14:35:27;5.93;;;3.00;;
67904;SDS011;54709;43.614;1.576;2023-02-19T14:37:58;5.15;;;3.35;;
67904;SDS011;54709;43.614;1.576;2023-02-19T14:40:27;4.70;;;3.17;;
67904;SDS011;54709;43.614;1.576;2023-02-19T14:43:00;4.40;;;2.88;;
67904;SDS011;54709;43.614;1.576;2023-02-19T14:45:26;4.68;;;2.80;;
67904;SDS011;54709;43.614;1.576;2023-02-19T14:47:53;3.38;;;2.85;;
67904;SDS011;54709;43.614;1.576;2023-02-19T14:50:24;7.28;;;3.17;;
67904;SDS011;54709;43.614;1.576;2023-02-19T14:52:53;8.52;;;3.53;;
67904;SDS011;54709;43.614;1.576;2023-02-19T14:55:26;5.18;;;3.50;;
67904;SDS011;54709;43.614;1.576;2023-02-19T14:57:57;4.38;;;3.20;;
67904;SDS011;54709;43.614;1.576;2023-02-19T15:00:29;5.70;;;3.00;;
67904;SDS011;54709;43.614;1.576;2023-02-19T15:02:58;4.32;;;2.72;;
67904;SDS011;54709;43.614;1.576;2023-02-19T15:05:28;3.58;;;2.63;;
67904;SDS011;54709;43.614;1.576;2023-02-19T15:07:56;4.25;;;2.70;;
67904;SDS011;54709;43.614;1.576;2023-02-19T15:10:24;4.38;;;2.28;;
67904;SDS011;54709;43.614;1.576;2023-02-19T15:13:01;5.15;;;2.90;;
67904;SDS011;54709;43.614;1.576;2023-02-19T15:15:29;4.20;;;2.70;;
67904;SDS011;54709;43.614;1.576;2023-02-19T15:17:57;3.50;;;2.80;;
67904;SDS011;54709;43.614;1.576;2023-02-19T15:20:24;3.92;;;2.85;;
67904;SDS011;54709;43.614;1.576;2023-02-19T15:22:52;4.10;;;2.60;;
67904;SDS011;54709;43.614;1.576;2023-02-19T15:25:19;4.35;;;2.85;;
67904;SDS011;54709;43.614;1.576;2023-02-19T15:27:45;3.58;;;2.72;;
67904;SDS011;54709;43.614;1.576;2023-02-19T15:30:21;12.05;;;3.65;;
67904;SDS011;54709;43.614;1.576;2023-02-19T15:32:56;5.65;;;3.63;;
67904;SDS011;54709;43.614;1.576;2023-02-19T15:35:23;7.13;;;3.17;;
67904;SDS011;54709;43.614;1.576;2023-02-19T15:37:50;4.43;;;3.30;;
67904;SDS011;54709;43.614;1.576;2023-02-19T15:40:16;7.10;;;3.50;;
67904;SDS011;54709;43.614;1.576;2023-02-19T15:42:44;5.38;;;3.00;;
67904;SDS011;54709;43.614;1.576;2023-02-19T15:48:05;5.72;;;3.25;;
67904;SDS011;54709;43.614;1.576;2023-02-19T15:50:33;7.82;;;2.92;;
67904;SDS011;54709;43.614;1.576;2023-02-19T15:53:01;4.95;;;2.83;;
67904;SDS011;54709;43.614;1.576;2023-02-19T16:01:16;3.70;;;3.10;;
67904;SDS011;54709;43.614;1.576;2023-02-19T16:03:44;5.60;;;3.67;;
67904;SDS011;54709;43.614;1.576;2023-02-19T16:06:11;5.05;;;3.50;;
67904;SDS011;54709;43.614;1.576;2023-02-19T16:08:42;5.95;;;3.28;;
67904;SDS011;54709;43.614;1.576;2023-02-19T16:19:29;5.25;;;2.60;;
67904;SDS011;54709;43.614;1.576;2023-02-19T16:21:59;4.32;;;2.63;;
67904;SDS011;54709;43.614;1.576;2023-02-19T16:24:34;3.40;;;2.58;;
67904;SDS011;54709;43.614;1.576;2023-02-19T16:27:01;3.70;;;2.60;;
67904;SDS011;54709;43.614;1.576;2023-02-19T16:29:29;3.95;;;2.67;;
67904;SDS011;54709;43.614;1.576;2023-02-19T16:31:56;4.13;;;2.63;;
67904;SDS011;54709;43.614;1.576;2023-02-19T16:34:40;4.75;;;2.95;;
67904;SDS011;54709;43.614;1.576;2023-02-19T16:42:31;5.25;;;3.15;;
67904;SDS011;54709;43.614;1.576;2023-02-19T16:44:57;3.72;;;2.70;;
67904;SDS011;54709;43.614;1.576;2023-02-19T16:47:24;3.28;;;2.72;;
67904;SDS011;54709;43.614;1.576;2023-02-19T16:49:51;3.05;;;2.45;;
67904;SDS011;54709;43.614;1.576;2023-02-19T16:52:17;5.05;;;2.70;;
67904;SDS011;54709;43.614;1.576;2023-02-19T16:54:42;3.83;;;2.92;;
67904;SDS011;54709;43.614;1.576;2023-02-19T16:57:07;4.65;;;3.00;;
67904;SDS011;54709;43.614;1.576;2023-02-19T16:59:33;5.13;;;3.08;;